sensor_id;sensor_type;location;lat;lon;timestamp;P1;durP1;ratioP1;P2;durP2;ratioP2
5876;SDS011;2964;42.144;24.730;2024-01-16T00:02:18;75.67;;;38.83;;
5876;SDS011;2964;42.144;24.730;2024-01-16T00:04:45;73.00;;;38.93;;
5876;SDS011;2964;42.144;24.730;2024-01-16T00:07:11;74.30;;;39.53;;
5876;SDS011;2964;42.144;24.730;2024-01-16T00:09:38;78.13;;;37.30;;
5876;SDS011;2964;42.144;24.730;2024-01-16T00:12:05;71.83;;;39.97;;
5876;SDS011;2964;42.144;24.730;2024-01-16T00:14:34;84.73;;;42.37;;
5876;SDS011;2964;42.144;24.730;2024-01-16T00:17:01;81.37;;;41.23;;
5876;SDS011;2964;42.144;24.730;2024-01-16T00:19:30;72.40;;;40.83;;
5876;SDS011;2964;42.144;24.730;2024-01-16T00:21:56;77.00;;;40.43;;
5876;SDS011;2964;42.144;24.730;2024-01-16T00:24:23;73.40;;;41.70;;
5876;SDS011;2964;42.144;24.730;2024-01-16T00:26:50;88.67;;;43.33;;
5876;SDS011;2964;42.144;24.730;2024-01-16T00:29:16;80.30;;;41.90;;
5876;SDS011;2964;42.144;24.730;2024-01-16T00:31:43;83.30;;;44.13;;
5876;SDS011;2964;42.144;24.730;2024-01-16T00:34:10;89.67;;;41.83;;
5876;SDS011;2964;42.144;24.730;2024-01-16T00:36:38;82.93;;;41.20;;
5876;SDS011;2964;42.144;24.730;2024-01-16T00:39:04;82.70;;;42.13;;
5876;SDS011;2964;42.144;24.730;2024-01-16T00:41:32;89.37;;;42.93;;
5876;SDS011;2964;42.144;24.730;2024-01-16T00:43:59;77.97;;;42.03;;
5876;SDS011;2964;42.144;24.730;2024-01-16T00:46:25;85.57;;;43.40;;
5876;SDS011;2964;42.144;24.730;2024-01-16T00:48:52;73.93;;;40.53;;
5876;SDS011;2964;42.144;24.730;2024-01-16T00:51:19;82.80;;;40.17;;
5876;SDS011;2964;42.144;24.730;2024-01-16T00:53:47;75.37;;;41.97;;
5876;SDS011;2964;42.144;24.730;2024-01-16T00:56:13;92.90;;;42.47;;
5876;SDS011;2964;42.144;24.730;2024-01-16T00:58:40;82.57;;;40.90;;
5876;SDS011;2964;42.144;24.730;2024-01-16T01:01:07;86.50;;;42.53;;
5876;SDS011;2964;42.144;24.730;2024-01-16T01:03:33;95.53;;;44.07;;
5876;SDS011;2964;42.144;24.730;2024-01-16T01:06:00;85.63;;;43.37;;
5876;SDS011;2964;42.144;24.730;2024-01-16T01:08:27;84.27;;;41.77;;
5876;SDS011;2964;42.144;24.730;2024-01-16T01:10:55;88.23;;;42.70;;
5876;SDS011;2964;42.144;24.730;2024-01-16T01:13:22;86.50;;;41.57;;
5876;SDS011;2964;42.144;24.730;2024-01-16T01:15:50;83.27;;;42.43;;
5876;SDS011;2964;42.144;24.730;2024-01-16T01:18:17;92.10;;;42.20;;
5876;SDS011;2964;42.144;24.730;2024-01-16T01:20:43;85.17;;;41.07;;
5876;SDS011;2964;42.144;24.730;2024-01-16T01:23:10;87.07;;;43.93;;
5876;SDS011;2964;42.144;24.730;2024-01-16T01:25:37;90.43;;;44.63;;
5876;SDS011;2964;42.144;24.730;2024-01-16T01:28:05;94.27;;;45.53;;
5876;SDS011;2964;42.144;24.730;2024-01-16T01:30:32;89.47;;;44.47;;
5876;SDS011;2964;42.144;24.730;2024-01-16T01:32:59;89.53;;;43.67;;
5876;SDS011;2964;42.144;24.730;2024-01-16T01:35:26;87.20;;;44.93;;
5876;SDS011;2964;42.144;24.730;2024-01-16T01:37:52;89.13;;;45.03;;
5876;SDS011;2964;42.144;24.730;2024-01-16T01:40:19;83.67;;;42.30;;
5876;SDS011;2964;42.144;24.730;2024-01-16T01:42:46;83.97;;;42.60;;
5876;SDS011;2964;42.144;24.730;2024-01-16T01:45:14;83.10;;;42.97;;
5876;SDS011;2964;42.144;24.730;2024-01-16T01:47:41;81.70;;;41.70;;
5876;SDS011;2964;42.144;24.730;2024-01-16T01:50:08;84.60;;;42.50;;
5876;SDS011;2964;42.144;24.730;2024-01-16T01:52:36;76.50;;;39.23;;
5876;SDS011;2964;42.144;24.730;2024-01-16T01:55:05;78.20;;;40.63;;
5876;SDS011;2964;42.144;24.730;2024-01-16T01:57:35;74.23;;;40.93;;
5876;SDS011;2964;42.144;24.730;2024-01-16T02:00:02;75.57;;;40.20;;
5876;SDS011;2964;42.144;24.730;2024-01-16T02:02:31;72.13;;;40.60;;
5876;SDS011;2964;42.144;24.730;2024-01-16T02:04:58;79.20;;;40.63;;
5876;SDS011;2964;42.144;24.730;2024-01-16T02:07:25;84.77;;;40.97;;
5876;SDS011;2964;42.144;24.730;2024-01-16T02:09:52;77.87;;;40.77;;
5876;SDS011;2964;42.144;24.730;2024-01-16T02:12:20;80.10;;;40.03;;
5876;SDS011;2964;42.144;24.730;2024-01-16T02:14:47;80.77;;;41.00;;
5876;SDS011;2964;42.144;24.730;2024-01-16T02:17:13;75.17;;;40.00;;
5876;SDS011;2964;42.144;24.730;2024-01-16T02:19:41;78.17;;;40.97;;
5876;SDS011;2964;42.144;24.730;2024-01-16T02:22:09;78.70;;;41.33;;
5876;SDS011;2964;42.144;24.730;2024-01-16T02:24:39;85.60;;;42.17;;
5876;SDS011;2964;42.144;24.730;2024-01-16T02:27:06;73.20;;;40.43;;
5876;SDS011;2964;42.144;24.730;2024-01-16T02:29:33;79.67;;;41.53;;
5876;SDS011;2964;42.144;24.730;2024-01-16T02:32:02;84.93;;;39.90;;
5876;SDS011;2964;42.144;24.730;2024-01-16T02:34:29;80.10;;;41.63;;
5876;SDS011;2964;42.144;24.730;2024-01-16T02:36:56;93.30;;;42.67;;
5876;SDS011;2964;42.144;24.730;2024-01-16T02:39:23;75.13;;;40.63;;
5876;SDS011;2964;42.144;24.730;2024-01-16T02:41:51;86.13;;;41.83;;
5876;SDS011;2964;42.144;24.730;2024-01-16T02:44:18;79.37;;;40.93;;
5876;SDS011;2964;42.144;24.730;2024-01-16T02:46:44;87.53;;;43.57;;
5876;SDS011;2964;42.144;24.730;2024-01-16T02:49:11;81.17;;;41.57;;
5876;SDS011;2964;42.144;24.730;2024-01-16T02:51:38;82.93;;;42.10;;
5876;SDS011;2964;42.144;24.730;2024-01-16T02:54:05;71.00;;;39.40;;
5876;SDS011;2964;42.144;24.730;2024-01-16T02:56:32;75.60;;;41.13;;
5876;SDS011;2964;42.144;24.730;2024-01-16T02:59:00;82.83;;;41.73;;
5876;SDS011;2964;42.144;24.730;2024-01-16T03:01:27;80.87;;;42.83;;
5876;SDS011;2964;42.144;24.730;2024-01-16T03:03:54;68.27;;;40.10;;
5876;SDS011;2964;42.144;24.730;2024-01-16T03:06:23;77.33;;;40.73;;
5876;SDS011;2964;42.144;24.730;2024-01-16T03:08:50;69.07;;;39.33;;
5876;SDS011;2964;42.144;24.730;2024-01-16T03:11:17;74.37;;;39.40;;
5876;SDS011;2964;42.144;24.730;2024-01-16T03:13:44;75.63;;;39.97;;
5876;SDS011;2964;42.144;24.730;2024-01-16T03:16:12;72.60;;;38.33;;
5876;SDS011;2964;42.144;24.730;2024-01-16T03:18:39;75.97;;;39.40;;
5876;SDS011;2964;42.144;24.730;2024-01-16T03:21:06;72.40;;;38.40;;
5876;SDS011;2964;42.144;24.730;2024-01-16T03:23:33;69.90;;;36.90;;
5876;SDS011;2964;42.144;24.730;2024-01-16T03:26:00;74.00;;;39.80;;
5876;SDS011;2964;42.144;24.730;2024-01-16T03:28:28;67.80;;;38.57;;
5876;SDS011;2964;42.144;24.730;2024-01-16T03:30:55;75.47;;;37.00;;
5876;SDS011;2964;42.144;24.730;2024-01-16T03:33:23;67.70;;;38.43;;
5876;SDS011;2964;42.144;24.730;2024-01-16T03:35:50;72.90;;;36.63;;
5876;SDS011;2964;42.144;24.730;2024-01-16T03:38:17;86.43;;;41.93;;
5876;SDS011;2964;42.144;24.730;2024-01-16T03:40:44;71.23;;;37.00;;
5876;SDS011;2964;42.144;24.730;2024-01-16T03:43:11;72.73;;;38.57;;
5876;SDS011;2964;42.144;24.730;2024-01-16T03:45:37;70.27;;;38.33;;
5876;SDS011;2964;42.144;24.730;2024-01-16T03:48:04;70.63;;;39.10;;
5876;SDS011;2964;42.144;24.730;2024-01-16T03:50:33;72.33;;;38.70;;
5876;SDS011;2964;42.144;24.730;2024-01-16T03:53:01;73.63;;;38.83;;
5876;SDS011;2964;42.144;24.730;2024-01-16T03:55:29;69.03;;;37.03;;
5876;SDS011;2964;42.144;24.730;2024-01-16T03:57:55;66.90;;;38.07;;
5876;SDS011;2964;42.144;24.730;2024-01-16T04:00:22;66.50;;;38.07;;
5876;SDS011;2964;42.144;24.730;2024-01-16T04:02:49;69.43;;;36.90;;
5876;SDS011;2964;42.144;24.730;2024-01-16T04:05:15;66.87;;;36.83;;
5876;SDS011;2964;42.144;24.730;2024-01-16T04:07:43;73.53;;;38.70;;
5876;SDS011;2964;42.144;24.730;2024-01-16T04:10:10;80.97;;;37.90;;
5876;SDS011;2964;42.144;24.730;2024-01-16T04:12:37;76.73;;;37.00;;
5876;SDS011;2964;42.144;24.730;2024-01-16T04:15:04;66.97;;;36.73;;
5876;SDS011;2964;42.144;24.730;2024-01-16T04:17:31;65.37;;;36.97;;
5876;SDS011;2964;42.144;24.730;2024-01-16T04:19:57;72.90;;;38.37;;
5876;SDS011;2964;42.144;24.730;2024-01-16T04:22:24;65.87;;;36.13;;
5876;SDS011;2964;42.144;24.730;2024-01-16T04:24:52;70.20;;;36.63;;
5876;SDS011;2964;42.144;24.730;2024-01-16T04:27:19;68.37;;;36.57;;
5876;SDS011;2964;42.144;24.730;2024-01-16T04:29:46;70.63;;;36.63;;
5876;SDS011;2964;42.144;24.730;2024-01-16T04:32:13;60.67;;;34.07;;
5876;SDS011;2964;42.144;24.730;2024-01-16T04:34:40;71.80;;;36.57;;
5876;SDS011;2964;42.144;24.730;2024-01-16T04:37:06;79.00;;;39.53;;
5876;SDS011;2964;42.144;24.730;2024-01-16T04:39:33;64.83;;;36.33;;
5876;SDS011;2964;42.144;24.730;2024-01-16T04:42:01;79.07;;;40.97;;
5876;SDS011;2964;42.144;24.730;2024-01-16T04:44:28;62.37;;;35.43;;
5876;SDS011;2964;42.144;24.730;2024-01-16T04:46:55;61.80;;;34.17;;
5876;SDS011;2964;42.144;24.730;2024-01-16T04:49:22;70.80;;;35.77;;
5876;SDS011;2964;42.144;24.730;2024-01-16T04:51:49;70.97;;;37.03;;
5876;SDS011;2964;42.144;24.730;2024-01-16T04:54:15;68.13;;;35.70;;
5876;SDS011;2964;42.144;24.730;2024-01-16T04:56:42;66.67;;;35.17;;
5876;SDS011;2964;42.144;24.730;2024-01-16T04:59:10;64.87;;;36.47;;
5876;SDS011;2964;42.144;24.730;2024-01-16T05:01:37;72.37;;;35.90;;
5876;SDS011;2964;42.144;24.730;2024-01-16T05:04:03;70.30;;;37.33;;
5876;SDS011;2964;42.144;24.730;2024-01-16T05:06:33;64.73;;;35.63;;
5876;SDS011;2964;42.144;24.730;2024-01-16T05:08:59;61.40;;;33.33;;
5876;SDS011;2964;42.144;24.730;2024-01-16T05:11:26;58.57;;;33.37;;
5876;SDS011;2964;42.144;24.730;2024-01-16T05:13:53;65.73;;;34.40;;
5876;SDS011;2964;42.144;24.730;2024-01-16T05:16:24;55.50;;;33.50;;
5876;SDS011;2964;42.144;24.730;2024-01-16T05:18:51;72.50;;;35.33;;
5876;SDS011;2964;42.144;24.730;2024-01-16T05:21:18;59.07;;;30.20;;
5876;SDS011;2964;42.144;24.730;2024-01-16T05:23:45;56.90;;;32.37;;
5876;SDS011;2964;42.144;24.730;2024-01-16T05:26:12;61.33;;;32.07;;
5876;SDS011;2964;42.144;24.730;2024-01-16T05:28:39;54.60;;;30.83;;
5876;SDS011;2964;42.144;24.730;2024-01-16T05:31:06;51.93;;;29.20;;
5876;SDS011;2964;42.144;24.730;2024-01-16T05:33:34;53.03;;;29.00;;
5876;SDS011;2964;42.144;24.730;2024-01-16T05:36:00;51.90;;;28.77;;
5876;SDS011;2964;42.144;24.730;2024-01-16T05:38:27;54.60;;;27.93;;
5876;SDS011;2964;42.144;24.730;2024-01-16T05:40:54;47.40;;;27.20;;
5876;SDS011;2964;42.144;24.730;2024-01-16T05:43:21;47.37;;;27.83;;
5876;SDS011;2964;42.144;24.730;2024-01-16T05:45:47;40.97;;;27.47;;
5876;SDS011;2964;42.144;24.730;2024-01-16T05:48:15;42.53;;;25.33;;
5876;SDS011;2964;42.144;24.730;2024-01-16T05:50:43;44.80;;;25.47;;
5876;SDS011;2964;42.144;24.730;2024-01-16T05:53:10;47.97;;;26.23;;
5876;SDS011;2964;42.144;24.730;2024-01-16T05:55:37;43.30;;;27.33;;
5876;SDS011;2964;42.144;24.730;2024-01-16T05:58:03;45.23;;;24.93;;
5876;SDS011;2964;42.144;24.730;2024-01-16T06:00:30;47.83;;;27.37;;
5876;SDS011;2964;42.144;24.730;2024-01-16T06:02:58;47.10;;;25.73;;
5876;SDS011;2964;42.144;24.730;2024-01-16T06:05:25;44.03;;;25.47;;
5876;SDS011;2964;42.144;24.730;2024-01-16T06:07:53;39.57;;;24.77;;
5876;SDS011;2964;42.144;24.730;2024-01-16T06:10:20;46.70;;;24.63;;
5876;SDS011;2964;42.144;24.730;2024-01-16T06:12:47;40.63;;;23.23;;
5876;SDS011;2964;42.144;24.730;2024-01-16T06:15:14;38.50;;;22.63;;
5876;SDS011;2964;42.144;24.730;2024-01-16T06:17:40;34.27;;;21.40;;
5876;SDS011;2964;42.144;24.730;2024-01-16T06:20:07;42.07;;;24.13;;
5876;SDS011;2964;42.144;24.730;2024-01-16T06:22:35;32.60;;;19.97;;
5876;SDS011;2964;42.144;24.730;2024-01-16T06:25:04;33.17;;;17.90;;
5876;SDS011;2964;42.144;24.730;2024-01-16T06:27:31;24.83;;;18.20;;
5876;SDS011;2964;42.144;24.730;2024-01-16T06:29:58;19.37;;;14.60;;
5876;SDS011;2964;42.144;24.730;2024-01-16T06:32:25;20.60;;;13.83;;
5876;SDS011;2964;42.144;24.730;2024-01-16T06:34:51;20.73;;;15.03;;
5876;SDS011;2964;42.144;24.730;2024-01-16T06:37:18;19.13;;;12.40;;
5876;SDS011;2964;42.144;24.730;2024-01-16T06:39:45;14.60;;;12.53;;
5876;SDS011;2964;42.144;24.730;2024-01-16T06:42:13;18.73;;;12.13;;
5876;SDS011;2964;42.144;24.730;2024-01-16T06:44:39;13.53;;;10.97;;
5876;SDS011;2964;42.144;24.730;2024-01-16T06:47:06;13.73;;;11.17;;
5876;SDS011;2964;42.144;24.730;2024-01-16T06:49:33;12.47;;;9.53;;
5876;SDS011;2964;42.144;24.730;2024-01-16T06:51:59;10.63;;;9.47;;
5876;SDS011;2964;42.144;24.730;2024-01-16T06:54:26;9.90;;;8.93;;
5876;SDS011;2964;42.144;24.730;2024-01-16T06:56:53;13.03;;;9.20;;
5876;SDS011;2964;42.144;24.730;2024-01-16T06:59:21;8.43;;;7.60;;
5876;SDS011;2964;42.144;24.730;2024-01-16T07:01:47;8.37;;;7.60;;
5876;SDS011;2964;42.144;24.730;2024-01-16T07:04:14;12.37;;;6.77;;
5876;SDS011;2964;42.144;24.730;2024-01-16T07:06:41;9.07;;;7.13;;
5876;SDS011;2964;42.144;24.730;2024-01-16T07:09:08;7.13;;;6.63;;
5876;SDS011;2964;42.144;24.730;2024-01-16T07:11:36;6.47;;;6.03;;
5876;SDS011;2964;42.144;24.730;2024-01-16T07:14:03;7.67;;;6.97;;
5876;SDS011;2964;42.144;24.730;2024-01-16T07:16:31;7.17;;;6.43;;
5876;SDS011;2964;42.144;24.730;2024-01-16T07:18:58;8.90;;;6.63;;
5876;SDS011;2964;42.144;24.730;2024-01-16T07:21:24;7.27;;;6.60;;
5876;SDS011;2964;42.144;24.730;2024-01-16T07:23:51;8.83;;;7.80;;
5876;SDS011;2964;42.144;24.730;2024-01-16T07:26:18;9.50;;;8.50;;
5876;SDS011;2964;42.144;24.730;2024-01-16T07:28:45;9.27;;;7.63;;
5876;SDS011;2964;42.144;24.730;2024-01-16T07:31:13;8.20;;;7.40;;
5876;SDS011;2964;42.144;24.730;2024-01-16T07:33:41;8.80;;;7.80;;
5876;SDS011;2964;42.144;24.730;2024-01-16T07:36:08;8.27;;;7.50;;
5876;SDS011;2964;42.144;24.730;2024-01-16T07:38:35;8.37;;;7.60;;
5876;SDS011;2964;42.144;24.730;2024-01-16T07:41:02;6.53;;;6.13;;
5876;SDS011;2964;42.144;24.730;2024-01-16T07:43:29;6.77;;;6.27;;
5876;SDS011;2964;42.144;24.730;2024-01-16T07:45:56;7.13;;;6.63;;
5876;SDS011;2964;42.144;24.730;2024-01-16T07:48:22;7.07;;;6.30;;
5876;SDS011;2964;42.144;24.730;2024-01-16T07:50:51;6.50;;;6.10;;
5876;SDS011;2964;42.144;24.730;2024-01-16T07:53:17;6.13;;;5.63;;
5876;SDS011;2964;42.144;24.730;2024-01-16T07:55:44;7.50;;;7.00;;
5876;SDS011;2964;42.144;24.730;2024-01-16T07:58:11;6.37;;;5.97;;
5876;SDS011;2964;42.144;24.730;2024-01-16T08:00:38;6.37;;;5.87;;
5876;SDS011;2964;42.144;24.730;2024-01-16T08:03:07;6.23;;;5.83;;
5876;SDS011;2964;42.144;24.730;2024-01-16T08:05:36;7.00;;;5.87;;
5876;SDS011;2964;42.144;24.730;2024-01-16T08:08:04;6.40;;;6.00;;
5876;SDS011;2964;42.144;24.730;2024-01-16T08:10:34;7.90;;;5.80;;
5876;SDS011;2964;42.144;24.730;2024-01-16T08:13:01;7.73;;;5.67;;
5876;SDS011;2964;42.144;24.730;2024-01-16T08:15:28;4.90;;;4.57;;
5876;SDS011;2964;42.144;24.730;2024-01-16T08:17:55;6.40;;;4.87;;
5876;SDS011;2964;42.144;24.730;2024-01-16T08:20:21;6.37;;;5.80;;
5876;SDS011;2964;42.144;24.730;2024-01-16T08:22:48;5.67;;;5.17;;
5876;SDS011;2964;42.144;24.730;2024-01-16T08:25:17;7.33;;;5.47;;
5876;SDS011;2964;42.144;24.730;2024-01-16T08:27:43;6.87;;;6.27;;
5876;SDS011;2964;42.144;24.730;2024-01-16T08:30:10;10.50;;;5.63;;
5876;SDS011;2964;42.144;24.730;2024-01-16T08:32:38;9.77;;;5.43;;
5876;SDS011;2964;42.144;24.730;2024-01-16T08:35:05;6.80;;;5.73;;
5876;SDS011;2964;42.144;24.730;2024-01-16T08:37:33;11.03;;;5.60;;
5876;SDS011;2964;42.144;24.730;2024-01-16T08:40:00;6.43;;;5.20;;
5876;SDS011;2964;42.144;24.730;2024-01-16T08:42:29;5.00;;;4.50;;
5876;SDS011;2964;42.144;24.730;2024-01-16T08:44:56;6.80;;;5.00;;
5876;SDS011;2964;42.144;24.730;2024-01-16T08:47:23;4.87;;;4.40;;
5876;SDS011;2964;42.144;24.730;2024-01-16T08:49:50;6.33;;;4.73;;
5876;SDS011;2964;42.144;24.730;2024-01-16T08:52:17;5.27;;;4.50;;
5876;SDS011;2964;42.144;24.730;2024-01-16T08:54:44;5.17;;;4.67;;
5876;SDS011;2964;42.144;24.730;2024-01-16T08:57:10;5.80;;;4.83;;
5876;SDS011;2964;42.144;24.730;2024-01-16T08:59:39;6.17;;;4.83;;
5876;SDS011;2964;42.144;24.730;2024-01-16T09:02:06;4.93;;;4.73;;
5876;SDS011;2964;42.144;24.730;2024-01-16T09:04:33;4.17;;;3.93;;
5876;SDS011;2964;42.144;24.730;2024-01-16T09:07:00;4.30;;;3.87;;
5876;SDS011;2964;42.144;24.730;2024-01-16T09:09:29;6.43;;;4.30;;
5876;SDS011;2964;42.144;24.730;2024-01-16T09:11:56;4.97;;;4.47;;
5876;SDS011;2964;42.144;24.730;2024-01-16T09:14:23;6.67;;;4.43;;
5876;SDS011;2964;42.144;24.730;2024-01-16T09:16:51;10.50;;;4.37;;
5876;SDS011;2964;42.144;24.730;2024-01-16T09:19:19;5.10;;;4.80;;
5876;SDS011;2964;42.144;24.730;2024-01-16T09:21:45;4.20;;;3.83;;
5876;SDS011;2964;42.144;24.730;2024-01-16T09:24:12;4.20;;;3.87;;
5876;SDS011;2964;42.144;24.730;2024-01-16T09:26:39;4.60;;;4.40;;
5876;SDS011;2964;42.144;24.730;2024-01-16T09:29:05;4.00;;;3.80;;
5876;SDS011;2964;42.144;24.730;2024-01-16T09:31:33;3.77;;;3.60;;
5876;SDS011;2964;42.144;24.730;2024-01-16T09:34:02;22.57;;;5.23;;
5876;SDS011;2964;42.144;24.730;2024-01-16T09:36:28;6.00;;;4.07;;
5876;SDS011;2964;42.144;24.730;2024-01-16T09:38:55;4.37;;;4.17;;
5876;SDS011;2964;42.144;24.730;2024-01-16T09:41:22;3.67;;;3.53;;
5876;SDS011;2964;42.144;24.730;2024-01-16T09:43:49;3.63;;;3.40;;
5876;SDS011;2964;42.144;24.730;2024-01-16T09:46:17;4.30;;;4.07;;
5876;SDS011;2964;42.144;24.730;2024-01-16T09:48:46;4.37;;;3.90;;
5876;SDS011;2964;42.144;24.730;2024-01-16T09:51:15;4.37;;;3.90;;
5876;SDS011;2964;42.144;24.730;2024-01-16T09:53:42;4.03;;;3.83;;
5876;SDS011;2964;42.144;24.730;2024-01-16T09:56:11;5.40;;;3.77;;
5876;SDS011;2964;42.144;24.730;2024-01-16T09:58:41;4.07;;;3.43;;
5876;SDS011;2964;42.144;24.730;2024-01-16T10:01:10;5.03;;;3.27;;
5876;SDS011;2964;42.144;24.730;2024-01-16T10:03:38;3.83;;;3.43;;
5876;SDS011;2964;42.144;24.730;2024-01-16T10:06:06;12.67;;;4.00;;
5876;SDS011;2964;42.144;24.730;2024-01-16T10:08:34;6.40;;;3.10;;
5876;SDS011;2964;42.144;24.730;2024-01-16T10:11:01;6.60;;;3.43;;
5876;SDS011;2964;42.144;24.730;2024-01-16T10:13:28;3.30;;;3.00;;
5876;SDS011;2964;42.144;24.730;2024-01-16T10:15:55;4.03;;;3.10;;
5876;SDS011;2964;42.144;24.730;2024-01-16T10:18:23;4.63;;;3.40;;
5876;SDS011;2964;42.144;24.730;2024-01-16T10:20:50;3.80;;;3.60;;
5876;SDS011;2964;42.144;24.730;2024-01-16T10:23:27;3.57;;;3.37;;
5876;SDS011;2964;42.144;24.730;2024-01-16T10:26:05;3.37;;;3.13;;
5876;SDS011;2964;42.144;24.730;2024-01-16T10:28:33;3.07;;;2.97;;
5876;SDS011;2964;42.144;24.730;2024-01-16T10:31:03;3.93;;;3.60;;
5876;SDS011;2964;42.144;24.730;2024-01-16T10:33:31;4.13;;;3.57;;
5876;SDS011;2964;42.144;24.730;2024-01-16T10:36:07;8.90;;;4.43;;
5876;SDS011;2964;42.144;24.730;2024-01-16T10:38:37;7.43;;;4.00;;
5876;SDS011;2964;42.144;24.730;2024-01-16T10:41:08;8.53;;;3.30;;
5876;SDS011;2964;42.144;24.730;2024-01-16T10:43:35;4.13;;;3.93;;
5876;SDS011;2964;42.144;24.730;2024-01-16T10:46:09;10.17;;;3.60;;
5876;SDS011;2964;42.144;24.730;2024-01-16T10:48:38;3.63;;;3.33;;
5876;SDS011;2964;42.144;24.730;2024-01-16T10:51:06;3.93;;;3.63;;
5876;SDS011;2964;42.144;24.730;2024-01-16T10:53:34;4.03;;;3.73;;
5876;SDS011;2964;42.144;24.730;2024-01-16T10:56:01;5.47;;;3.40;;
5876;SDS011;2964;42.144;24.730;2024-01-16T10:58:32;5.63;;;3.57;;
5876;SDS011;2964;42.144;24.730;2024-01-16T11:01:01;3.77;;;3.57;;
5876;SDS011;2964;42.144;24.730;2024-01-16T11:03:34;3.47;;;3.30;;
5876;SDS011;2964;42.144;24.730;2024-01-16T11:06:05;3.00;;;2.80;;
5876;SDS011;2964;42.144;24.730;2024-01-16T11:08:35;3.27;;;3.07;;
5876;SDS011;2964;42.144;24.730;2024-01-16T11:11:03;5.00;;;3.67;;
5876;SDS011;2964;42.144;24.730;2024-01-16T11:13:33;3.87;;;3.67;;
5876;SDS011;2964;42.144;24.730;2024-01-16T11:16:00;9.60;;;4.13;;
5876;SDS011;2964;42.144;24.730;2024-01-16T11:18:29;3.63;;;3.43;;
5876;SDS011;2964;42.144;24.730;2024-01-16T11:20:57;4.33;;;4.03;;
5876;SDS011;2964;42.144;24.730;2024-01-16T11:23:24;9.83;;;3.50;;
5876;SDS011;2964;42.144;24.730;2024-01-16T11:25:51;3.87;;;3.57;;
5876;SDS011;2964;42.144;24.730;2024-01-16T11:28:18;3.20;;;3.00;;
5876;SDS011;2964;42.144;24.730;2024-01-16T11:30:46;3.90;;;3.63;;
5876;SDS011;2964;42.144;24.730;2024-01-16T11:39:18;3.20;;;3.10;;
5876;SDS011;2964;42.144;24.730;2024-01-16T11:41:49;3.37;;;3.20;;
5876;SDS011;2964;42.144;24.730;2024-01-16T11:47:07;3.93;;;3.30;;
5876;SDS011;2964;42.144;24.730;2024-01-16T11:49:35;3.07;;;2.97;;
5876;SDS011;2964;42.144;24.730;2024-01-16T11:52:02;3.23;;;3.10;;
5876;SDS011;2964;42.144;24.730;2024-01-16T11:54:29;3.30;;;3.17;;
5876;SDS011;2964;42.144;24.730;2024-01-16T12:00:03;3.90;;;3.40;;
5876;SDS011;2964;42.144;24.730;2024-01-16T12:02:42;3.83;;;3.10;;
5876;SDS011;2964;42.144;24.730;2024-01-16T12:05:20;3.70;;;3.43;;
5876;SDS011;2964;42.144;24.730;2024-01-16T12:07:47;5.40;;;3.57;;
5876;SDS011;2964;42.144;24.730;2024-01-16T12:10:19;4.13;;;3.93;;
5876;SDS011;2964;42.144;24.730;2024-01-16T12:12:48;6.23;;;3.33;;
5876;SDS011;2964;42.144;24.730;2024-01-16T12:15:16;9.50;;;3.67;;
5876;SDS011;2964;42.144;24.730;2024-01-16T12:17:55;4.07;;;3.83;;
5876;SDS011;2964;42.144;24.730;2024-01-16T12:20:23;4.43;;;3.87;;
5876;SDS011;2964;42.144;24.730;2024-01-16T12:22:54;3.63;;;3.43;;
5876;SDS011;2964;42.144;24.730;2024-01-16T12:25:22;3.10;;;3.00;;
5876;SDS011;2964;42.144;24.730;2024-01-16T12:27:56;8.23;;;3.20;;
5876;SDS011;2964;42.144;24.730;2024-01-16T12:30:24;3.67;;;3.37;;
5876;SDS011;2964;42.144;24.730;2024-01-16T12:32:57;3.70;;;3.53;;
5876;SDS011;2964;42.144;24.730;2024-01-16T12:35:29;3.23;;;2.93;;
5876;SDS011;2964;42.144;24.730;2024-01-16T12:37:59;5.53;;;2.93;;
5876;SDS011;2964;42.144;24.730;2024-01-16T12:40:27;2.80;;;2.70;;
5876;SDS011;2964;42.144;24.730;2024-01-16T12:42:53;3.40;;;3.17;;
5876;SDS011;2964;42.144;24.730;2024-01-16T12:45:21;3.17;;;2.90;;
5876;SDS011;2964;42.144;24.730;2024-01-16T12:47:51;4.03;;;3.50;;
5876;SDS011;2964;42.144;24.730;2024-01-16T12:50:20;3.53;;;3.40;;
5876;SDS011;2964;42.144;24.730;2024-01-16T12:52:48;3.10;;;3.00;;
5876;SDS011;2964;42.144;24.730;2024-01-16T12:55:15;3.03;;;2.83;;
5876;SDS011;2964;42.144;24.730;2024-01-16T12:57:43;3.10;;;2.80;;
5876;SDS011;2964;42.144;24.730;2024-01-16T13:00:22;6.03;;;3.20;;
5876;SDS011;2964;42.144;24.730;2024-01-16T13:02:50;3.27;;;3.00;;
5876;SDS011;2964;42.144;24.730;2024-01-16T13:05:17;3.60;;;3.30;;
5876;SDS011;2964;42.144;24.730;2024-01-16T13:07:46;3.27;;;2.90;;
5876;SDS011;2964;42.144;24.730;2024-01-16T13:10:26;2.97;;;2.87;;
5876;SDS011;2964;42.144;24.730;2024-01-16T13:12:52;13.37;;;3.43;;
5876;SDS011;2964;42.144;24.730;2024-01-16T13:15:37;3.43;;;3.17;;
5876;SDS011;2964;42.144;24.730;2024-01-16T13:18:04;5.77;;;3.40;;
5876;SDS011;2964;42.144;24.730;2024-01-16T13:20:31;3.43;;;3.03;;
5876;SDS011;2964;42.144;24.730;2024-01-16T13:23:00;12.93;;;3.97;;
5876;SDS011;2964;42.144;24.730;2024-01-16T13:25:28;4.10;;;3.80;;
5876;SDS011;2964;42.144;24.730;2024-01-16T13:27:55;4.80;;;4.40;;
5876;SDS011;2964;42.144;24.730;2024-01-16T13:30:21;3.27;;;3.07;;
5876;SDS011;2964;42.144;24.730;2024-01-16T13:32:49;2.93;;;2.83;;
5876;SDS011;2964;42.144;24.730;2024-01-16T13:35:15;3.00;;;2.90;;
5876;SDS011;2964;42.144;24.730;2024-01-16T13:37:42;3.20;;;2.90;;
5876;SDS011;2964;42.144;24.730;2024-01-16T13:40:10;3.30;;;3.10;;
5876;SDS011;2964;42.144;24.730;2024-01-16T13:42:40;3.60;;;3.40;;
5876;SDS011;2964;42.144;24.730;2024-01-16T13:45:07;5.43;;;2.93;;
5876;SDS011;2964;42.144;24.730;2024-01-16T13:47:35;3.03;;;2.83;;
5876;SDS011;2964;42.144;24.730;2024-01-16T13:50:04;5.90;;;2.90;;
5876;SDS011;2964;42.144;24.730;2024-01-16T13:52:32;3.13;;;2.93;;
5876;SDS011;2964;42.144;24.730;2024-01-16T13:54:58;2.80;;;2.70;;
5876;SDS011;2964;42.144;24.730;2024-01-16T13:57:29;2.70;;;2.60;;
5876;SDS011;2964;42.144;24.730;2024-01-16T13:59:55;3.47;;;3.27;;
5876;SDS011;2964;42.144;24.730;2024-01-16T14:02:22;3.33;;;3.20;;
5876;SDS011;2964;42.144;24.730;2024-01-16T14:04:49;6.20;;;3.87;;
5876;SDS011;2964;42.144;24.730;2024-01-16T14:07:17;4.07;;;3.30;;
5876;SDS011;2964;42.144;24.730;2024-01-16T14:09:44;5.27;;;3.47;;
5876;SDS011;2964;42.144;24.730;2024-01-16T14:12:10;4.23;;;3.50;;
5876;SDS011;2964;42.144;24.730;2024-01-16T14:14:39;6.00;;;4.33;;
5876;SDS011;2964;42.144;24.730;2024-01-16T14:17:07;6.57;;;3.93;;
5876;SDS011;2964;42.144;24.730;2024-01-16T14:19:34;4.27;;;3.97;;
5876;SDS011;2964;42.144;24.730;2024-01-16T14:22:01;13.13;;;4.83;;
5876;SDS011;2964;42.144;24.730;2024-01-16T14:24:28;4.00;;;3.70;;
5876;SDS011;2964;42.144;24.730;2024-01-16T14:26:55;11.63;;;4.40;;
5876;SDS011;2964;42.144;24.730;2024-01-16T14:29:22;3.77;;;3.57;;
5876;SDS011;2964;42.144;24.730;2024-01-16T14:31:50;4.00;;;3.70;;
5876;SDS011;2964;42.144;24.730;2024-01-16T14:34:17;3.80;;;3.40;;
5876;SDS011;2964;42.144;24.730;2024-01-16T14:36:44;4.03;;;3.20;;
5876;SDS011;2964;42.144;24.730;2024-01-16T14:39:13;3.47;;;3.27;;
5876;SDS011;2964;42.144;24.730;2024-01-16T14:41:42;4.43;;;3.20;;
5876;SDS011;2964;42.144;24.730;2024-01-16T14:44:09;4.13;;;3.07;;
5876;SDS011;2964;42.144;24.730;2024-01-16T14:46:36;3.00;;;2.90;;
5876;SDS011;2964;42.144;24.730;2024-01-16T14:49:04;3.33;;;3.13;;
5876;SDS011;2964;42.144;24.730;2024-01-16T14:51:30;3.20;;;3.03;;
5876;SDS011;2964;42.144;24.730;2024-01-16T14:53:57;2.83;;;2.70;;
5876;SDS011;2964;42.144;24.730;2024-01-16T14:56:26;3.10;;;2.90;;
5876;SDS011;2964;42.144;24.730;2024-01-16T14:58:53;4.27;;;3.90;;
5876;SDS011;2964;42.144;24.730;2024-01-16T15:01:20;4.97;;;4.37;;
5876;SDS011;2964;42.144;24.730;2024-01-16T15:03:47;4.10;;;3.90;;